sensor_id;sensor_type;location;lat;lon;timestamp;temperature;humidity
42615;DHT22;28754;47.700;7.924;2023-07-31T00:01:16;14.30;99.90
42615;DHT22;28754;47.700;7.924;2023-07-31T00:04:02;14.20;99.90
42615;DHT22;28754;47.700;7.924;2023-07-31T00:06:49;14.20;99.90
42615;DHT22;28754;47.700;7.924;2023-07-31T00:09:36;14.10;99.90
42615;DHT22;28754;47.700;7.924;2023-07-31T00:12:23;14.10;99.90
42615;DHT22;28754;47.700;7.924;2023-07-31T00:15:10;13.90;99.90
42615;DHT22;28754;47.700;7.924;2023-07-31T00:17:58;13.90;99.90
42615;DHT22;28754;47.700;7.924;2023-07-31T00:20:44;13.70;99.90
42615;DHT22;28754;47.700;7.924;2023-07-31T00:23:31;13.70;99.90
42615;DHT22;28754;47.700;7.924;2023-07-31T00:26:18;13.60;99.90
42615;DHT22;28754;47.700;7.924;2023-07-31T00:29:04;13.70;99.90
42615;DHT22;28754;47.700;7.924;2023-07-31T00:31:51;13.70;99.90
42615;DHT22;28754;47.700;7.924;2023-07-31T00:34:38;13.70;99.90
42615;DHT22;28754;47.700;7.924;2023-07-31T00:37:25;13.80;99.90
42615;DHT22;28754;47.700;7.924;2023-07-31T00:40:11;13.80;99.90
42615;DHT22;28754;47.700;7.924;2023-07-31T00:43:00;13.90;99.90
42615;DHT22;28754;47.700;7.924;2023-07-31T00:45:46;13.80;99.90
42615;DHT22;28754;47.700;7.924;2023-07-31T00:48:34;13.90;99.90
42615;DHT22;28754;47.700;7.924;2023-07-31T00:51:22;13.80;99.90
42615;DHT22;28754;47.700;7.924;2023-07-31T00:54:11;13.80;99.90
42615;DHT22;28754;47.700;7.924;2023-07-31T00:56:59;13.80;99.90
42615;DHT22;28754;47.700;7.924;2023-07-31T00:59:48;13.70;99.90
42615;DHT22;28754;47.700;7.924;2023-07-31T01:02:35;13.80;99.90
42615;DHT22;28754;47.700;7.924;2023-07-31T01:05:36;13.90;99.90
42615;DHT22;28754;47.700;7.924;2023-07-31T01:09:02;13.90;99.90
42615;DHT22;28754;47.700;7.924;2023-07-31T01:12:04;13.90;99.90
42615;DHT22;28754;47.700;7.924;2023-07-31T01:15:06;13.80;99.90
42615;DHT22;28754;47.700;7.924;2023-07-31T01:17:57;13.70;99.90
42615;DHT22;28754;47.700;7.924;2023-07-31T01:20:53;13.70;99.90
42615;DHT22;28754;47.700;7.924;2023-07-31T01:24:01;13.60;99.90
42615;DHT22;28754;47.700;7.924;2023-07-31T01:27:12;13.70;99.90
42615;DHT22;28754;47.700;7.924;2023-07-31T01:30:11;13.80;99.90
42615;DHT22;28754;47.700;7.924;2023-07-31T01:33:03;13.90;99.90
42615;DHT22;28754;47.700;7.924;2023-07-31T01:35:53;13.60;99.90
42615;DHT22;28754;47.700;7.924;2023-07-31T01:38:41;13.70;99.90
42615;DHT22;28754;47.700;7.924;2023-07-31T01:41:29;13.70;99.90
42615;DHT22;28754;47.700;7.924;2023-07-31T01:44:15;13.80;99.90
42615;DHT22;28754;47.700;7.924;2023-07-31T01:47:02;13.60;99.90
42615;DHT22;28754;47.700;7.924;2023-07-31T01:49:49;13.60;99.90
42615;DHT22;28754;47.700;7.924;2023-07-31T01:52:36;13.60;99.90
42615;DHT22;28754;47.700;7.924;2023-07-31T01:55:22;13.70;99.90
42615;DHT22;28754;47.700;7.924;2023-07-31T01:58:12;13.80;99.90
42615;DHT22;28754;47.700;7.924;2023-07-31T02:09:22;13.50;99.90
42615;DHT22;28754;47.700;7.924;2023-07-31T02:12:09;13.70;99.90
42615;DHT22;28754;47.700;7.924;2023-07-31T02:14:55;13.60;99.90
42615;DHT22;28754;47.700;7.924;2023-07-31T02:17:42;13.50;99.90
42615;DHT22;28754;47.700;7.924;2023-07-31T02:20:29;13.60;99.90
42615;DHT22;28754;47.700;7.924;2023-07-31T02:23:15;13.50;99.90
42615;DHT22;28754;47.700;7.924;2023-07-31T02:26:03;13.40;99.90
42615;DHT22;28754;47.700;7.924;2023-07-31T02:28:50;13.30;99.90
42615;DHT22;28754;47.700;7.924;2023-07-31T02:31:37;13.30;99.90
42615;DHT22;28754;47.700;7.924;2023-07-31T02:34:25;13.50;99.90
42615;DHT22;28754;47.700;7.924;2023-07-31T02:37:12;13.40;99.90
42615;DHT22;28754;47.700;7.924;2023-07-31T02:39:59;13.20;99.90
42615;DHT22;28754;47.700;7.924;2023-07-31T02:42:48;13.30;99.90
42615;DHT22;28754;47.700;7.924;2023-07-31T02:45:35;13.30;99.90
42615;DHT22;28754;47.700;7.924;2023-07-31T02:48:22;13.20;99.90
42615;DHT22;28754;47.700;7.924;2023-07-31T02:51:08;13.40;99.90
42615;DHT22;28754;47.700;7.924;2023-07-31T02:53:55;13.30;99.90
42615;DHT22;28754;47.700;7.924;2023-07-31T02:56:42;13.20;99.90
42615;DHT22;28754;47.700;7.924;2023-07-31T02:59:28;13.20;99.90
42615;DHT22;28754;47.700;7.924;2023-07-31T03:02:15;13.20;99.90
42615;DHT22;28754;47.700;7.924;2023-07-31T03:05:02;13.30;99.90
42615;DHT22;28754;47.700;7.924;2023-07-31T03:07:49;13.30;99.90
42615;DHT22;28754;47.700;7.924;2023-07-31T03:10:36;13.30;99.90
42615;DHT22;28754;47.700;7.924;2023-07-31T03:13:22;13.40;99.90
42615;DHT22;28754;47.700;7.924;2023-07-31T03:16:09;13.40;99.90
42615;DHT22;28754;47.700;7.924;2023-07-31T03:18:56;13.20;99.90
42615;DHT22;28754;47.700;7.924;2023-07-31T03:21:42;13.20;99.90
42615;DHT22;28754;47.700;7.924;2023-07-31T03:24:29;13.20;99.90
42615;DHT22;28754;47.700;7.924;2023-07-31T03:27:16;13.30;99.90
42615;DHT22;28754;47.700;7.924;2023-07-31T03:30:04;13.20;99.90
42615;DHT22;28754;47.700;7.924;2023-07-31T03:32:51;13.40;99.90
42615;DHT22;28754;47.700;7.924;2023-07-31T03:35:38;13.30;99.90
42615;DHT22;28754;47.700;7.924;2023-07-31T03:38:25;13.40;99.90
42615;DHT22;28754;47.700;7.924;2023-07-31T03:41:13;13.30;99.90
42615;DHT22;28754;47.700;7.924;2023-07-31T03:44:00;13.40;99.90
42615;DHT22;28754;47.700;7.924;2023-07-31T03:46:47;13.40;99.90
42615;DHT22;28754;47.700;7.924;2023-07-31T03:49:34;13.50;99.90
42615;DHT22;28754;47.700;7.924;2023-07-31T03:52:20;13.60;99.90
42615;DHT22;28754;47.700;7.924;2023-07-31T03:55:10;13.60;99.90
42615;DHT22;28754;47.700;7.924;2023-07-31T03:57:56;13.60;99.90
42615;DHT22;28754;47.700;7.924;2023-07-31T04:05:32;13.50;99.90
42615;DHT22;28754;47.700;7.924;2023-07-31T04:08:19;13.40;99.90
42615;DHT22;28754;47.700;7.924;2023-07-31T04:11:06;13.50;99.90
42615;DHT22;28754;47.700;7.924;2023-07-31T04:13:53;13.40;99.90
42615;DHT22;28754;47.700;7.924;2023-07-31T04:16:39;13.40;99.90
42615;DHT22;28754;47.700;7.924;2023-07-31T04:19:26;13.40;99.90
42615;DHT22;28754;47.700;7.924;2023-07-31T04:22:13;13.40;99.90
42615;DHT22;28754;47.700;7.924;2023-07-31T04:24:59;13.30;99.90
42615;DHT22;28754;47.700;7.924;2023-07-31T04:27:46;13.40;99.90
42615;DHT22;28754;47.700;7.924;2023-07-31T04:30:33;13.40;99.90
42615;DHT22;28754;47.700;7.924;2023-07-31T04:33:19;13.50;99.90
42615;DHT22;28754;47.700;7.924;2023-07-31T04:36:06;13.50;99.90
42615;DHT22;28754;47.700;7.924;2023-07-31T04:38:53;13.40;99.90
42615;DHT22;28754;47.700;7.924;2023-07-31T04:41:39;13.40;99.90
42615;DHT22;28754;47.700;7.924;2023-07-31T04:44:26;13.50;99.90
42615;DHT22;28754;47.700;7.924;2023-07-31T04:47:13;13.60;99.90
42615;DHT22;28754;47.700;7.924;2023-07-31T04:49:59;13.70;99.90
42615;DHT22;28754;47.700;7.924;2023-07-31T04:52:46;13.70;99.90
42615;DHT22;28754;47.700;7.924;2023-07-31T04:55:33;13.80;99.90
42615;DHT22;28754;47.700;7.924;2023-07-31T04:58:19;13.90;99.90
42615;DHT22;28754;47.700;7.924;2023-07-31T05:01:06;13.90;99.90
42615;DHT22;28754;47.700;7.924;2023-07-31T05:03:53;13.90;99.90
42615;DHT22;28754;47.700;7.924;2023-07-31T05:06:40;13.80;99.90
42615;DHT22;28754;47.700;7.924;2023-07-31T05:09:27;13.90;99.90
42615;DHT22;28754;47.700;7.924;2023-07-31T05:12:14;14.00;99.90
42615;DHT22;28754;47.700;7.924;2023-07-31T05:15:00;14.00;99.90
42615;DHT22;28754;47.700;7.924;2023-07-31T05:17:47;14.00;99.90
42615;DHT22;28754;47.700;7.924;2023-07-31T05:20:34;14.10;99.90
42615;DHT22;28754;47.700;7.924;2023-07-31T05:23:20;14.00;99.90
42615;DHT22;28754;47.700;7.924;2023-07-31T05:26:07;14.10;99.90
42615;DHT22;28754;47.700;7.924;2023-07-31T05:28:56;14.10;99.90
42615;DHT22;28754;47.700;7.924;2023-07-31T05:31:44;14.20;99.90
42615;DHT22;28754;47.700;7.924;2023-07-31T05:34:30;14.10;99.90
42615;DHT22;28754;47.700;7.924;2023-07-31T05:37:17;14.10;99.90
42615;DHT22;28754;47.700;7.924;2023-07-31T05:40:04;14.00;99.90
42615;DHT22;28754;47.700;7.924;2023-07-31T05:42:51;14.10;99.90
42615;DHT22;28754;47.700;7.924;2023-07-31T05:45:38;14.10;99.90
42615;DHT22;28754;47.700;7.924;2023-07-31T05:48:26;14.20;99.90
42615;DHT22;28754;47.700;7.924;2023-07-31T05:51:13;14.30;99.90
42615;DHT22;28754;47.700;7.924;2023-07-31T05:53:59;14.40;99.90
42615;DHT22;28754;47.700;7.924;2023-07-31T05:56:46;14.50;99.90
42615;DHT22;28754;47.700;7.924;2023-07-31T05:59:33;14.60;99.90
42615;DHT22;28754;47.700;7.924;2023-07-31T06:02:19;14.70;99.90
42615;DHT22;28754;47.700;7.924;2023-07-31T06:05:06;14.70;99.90
42615;DHT22;28754;47.700;7.924;2023-07-31T06:07:53;14.60;99.90
42615;DHT22;28754;47.700;7.924;2023-07-31T06:10:40;14.60;99.90
42615;DHT22;28754;47.700;7.924;2023-07-31T06:13:27;14.70;99.90
42615;DHT22;28754;47.700;7.924;2023-07-31T06:16:14;14.60;99.90
42615;DHT22;28754;47.700;7.924;2023-07-31T06:19:01;14.60;99.90
42615;DHT22;28754;47.700;7.924;2023-07-31T06:21:48;14.80;99.90
42615;DHT22;28754;47.700;7.924;2023-07-31T06:24:35;14.90;99.90
42615;DHT22;28754;47.700;7.924;2023-07-31T06:27:21;15.10;99.90
42615;DHT22;28754;47.700;7.924;2023-07-31T06:30:08;15.40;99.90
42615;DHT22;28754;47.700;7.924;2023-07-31T06:32:55;15.80;99.90
42615;DHT22;28754;47.700;7.924;2023-07-31T06:35:42;15.60;99.90
42615;DHT22;28754;47.700;7.924;2023-07-31T06:38:29;15.90;99.90
42615;DHT22;28754;47.700;7.924;2023-07-31T06:41:15;15.80;99.90
42615;DHT22;28754;47.700;7.924;2023-07-31T06:44:02;15.80;99.90
42615;DHT22;28754;47.700;7.924;2023-07-31T06:46:49;16.00;99.90
42615;DHT22;28754;47.700;7.924;2023-07-31T06:49:35;15.80;99.90
42615;DHT22;28754;47.700;7.924;2023-07-31T06:52:22;15.80;99.90
42615;DHT22;28754;47.700;7.924;2023-07-31T06:55:29;15.70;99.90
42615;DHT22;28754;47.700;7.924;2023-07-31T06:58:16;15.90;99.90
42615;DHT22;28754;47.700;7.924;2023-07-31T07:01:02;16.10;99.90
42615;DHT22;28754;47.700;7.924;2023-07-31T07:03:49;16.00;99.90
42615;DHT22;28754;47.700;7.924;2023-07-31T07:06:37;16.10;99.90
42615;DHT22;28754;47.700;7.924;2023-07-31T07:09:23;16.00;99.90
42615;DHT22;28754;47.700;7.924;2023-07-31T07:12:10;16.30;99.90
42615;DHT22;28754;47.700;7.924;2023-07-31T07:14:57;16.40;99.90
42615;DHT22;28754;47.700;7.924;2023-07-31T07:17:44;16.50;99.90
42615;DHT22;28754;47.700;7.924;2023-07-31T07:20:30;16.70;99.90
42615;DHT22;28754;47.700;7.924;2023-07-31T07:23:17;16.80;99.90
42615;DHT22;28754;47.700;7.924;2023-07-31T07:26:05;16.70;99.90
42615;DHT22;28754;47.700;7.924;2023-07-31T07:28:52;16.80;99.90
42615;DHT22;28754;47.700;7.924;2023-07-31T07:31:39;16.80;99.90
42615;DHT22;28754;47.700;7.924;2023-07-31T07:34:27;16.70;99.90
42615;DHT22;28754;47.700;7.924;2023-07-31T07:37:14;16.50;99.90
42615;DHT22;28754;47.700;7.924;2023-07-31T07:40:00;16.80;99.90
42615;DHT22;28754;47.700;7.924;2023-07-31T07:42:47;16.90;99.90
42615;DHT22;28754;47.700;7.924;2023-07-31T07:45:34;16.80;99.90
42615;DHT22;28754;47.700;7.924;2023-07-31T07:48:21;17.00;99.90
42615;DHT22;28754;47.700;7.924;2023-07-31T07:51:08;16.90;99.90
42615;DHT22;28754;47.700;7.924;2023-07-31T07:53:55;16.70;99.90
42615;DHT22;28754;47.700;7.924;2023-07-31T07:56:42;16.40;99.90
42615;DHT22;28754;47.700;7.924;2023-07-31T07:59:29;16.30;99.90
42615;DHT22;28754;47.700;7.924;2023-07-31T08:02:16;16.70;99.90
42615;DHT22;28754;47.700;7.924;2023-07-31T08:05:02;17.20;99.90
42615;DHT22;28754;47.700;7.924;2023-07-31T08:07:49;17.90;99.90
42615;DHT22;28754;47.700;7.924;2023-07-31T08:10:36;17.10;99.90
42615;DHT22;28754;47.700;7.924;2023-07-31T08:13:23;17.20;99.90
42615;DHT22;28754;47.700;7.924;2023-07-31T08:16:09;17.10;99.90
42615;DHT22;28754;47.700;7.924;2023-07-31T08:18:56;17.10;99.90
42615;DHT22;28754;47.700;7.924;2023-07-31T08:21:43;17.40;99.90
42615;DHT22;28754;47.700;7.924;2023-07-31T08:24:29;17.60;99.90
42615;DHT22;28754;47.700;7.924;2023-07-31T08:27:16;18.10;99.90
42615;DHT22;28754;47.700;7.924;2023-07-31T08:30:03;18.10;99.90
42615;DHT22;28754;47.700;7.924;2023-07-31T08:32:50;18.60;99.90
42615;DHT22;28754;47.700;7.924;2023-07-31T08:35:37;18.30;99.90
42615;DHT22;28754;47.700;7.924;2023-07-31T08:38:24;18.20;99.90
42615;DHT22;28754;47.700;7.924;2023-07-31T08:41:11;17.90;99.90
42615;DHT22;28754;47.700;7.924;2023-07-31T08:43:59;18.60;99.90
42615;DHT22;28754;47.700;7.924;2023-07-31T08:46:48;18.70;99.90
42615;DHT22;28754;47.700;7.924;2023-07-31T08:49:37;19.40;99.90
42615;DHT22;28754;47.700;7.924;2023-07-31T08:52:25;18.50;99.90
42615;DHT22;28754;47.700;7.924;2023-07-31T08:55:11;18.80;99.90
42615;DHT22;28754;47.700;7.924;2023-07-31T08:57:58;19.00;99.90
42615;DHT22;28754;47.700;7.924;2023-07-31T09:00:47;19.10;99.90
42615;DHT22;28754;47.700;7.924;2023-07-31T09:03:34;19.30;99.90
42615;DHT22;28754;47.700;7.924;2023-07-31T09:06:23;19.50;99.90
42615;DHT22;28754;47.700;7.924;2023-07-31T09:09:12;19.80;99.90
42615;DHT22;28754;47.700;7.924;2023-07-31T09:11:59;19.80;99.90
42615;DHT22;28754;47.700;7.924;2023-07-31T09:14:47;19.90;99.90
42615;DHT22;28754;47.700;7.924;2023-07-31T09:17:35;19.50;99.90
42615;DHT22;28754;47.700;7.924;2023-07-31T09:20:22;19.30;99.90
42615;DHT22;28754;47.700;7.924;2023-07-31T09:23:13;19.30;99.90
42615;DHT22;28754;47.700;7.924;2023-07-31T09:26:01;19.40;99.90
42615;DHT22;28754;47.700;7.924;2023-07-31T09:28:48;20.20;99.90
42615;DHT22;28754;47.700;7.924;2023-07-31T09:31:43;20.20;99.90
42615;DHT22;28754;47.700;7.924;2023-07-31T09:34:37;20.40;99.90
42615;DHT22;28754;47.700;7.924;2023-07-31T09:37:25;20.40;99.90
42615;DHT22;28754;47.700;7.924;2023-07-31T09:40:25;21.00;99.90
42615;DHT22;28754;47.700;7.924;2023-07-31T09:43:20;20.80;99.90
42615;DHT22;28754;47.700;7.924;2023-07-31T09:46:13;20.50;99.90
42615;DHT22;28754;47.700;7.924;2023-07-31T09:49:08;20.30;99.90
42615;DHT22;28754;47.700;7.924;2023-07-31T09:51:55;19.10;99.90
42615;DHT22;28754;47.700;7.924;2023-07-31T09:54:42;19.10;99.90
42615;DHT22;28754;47.700;7.924;2023-07-31T09:57:28;19.70;99.90
42615;DHT22;28754;47.700;7.924;2023-07-31T10:00:18;20.30;99.90
42615;DHT22;28754;47.700;7.924;2023-07-31T10:03:09;19.60;99.90
42615;DHT22;28754;47.700;7.924;2023-07-31T10:05:57;19.80;99.90
42615;DHT22;28754;47.700;7.924;2023-07-31T10:08:47;20.30;99.90
42615;DHT22;28754;47.700;7.924;2023-07-31T10:11:41;19.20;99.90
42615;DHT22;28754;47.700;7.924;2023-07-31T10:14:36;19.40;99.90
42615;DHT22;28754;47.700;7.924;2023-07-31T10:17:26;19.80;99.90
42615;DHT22;28754;47.700;7.924;2023-07-31T10:20:14;19.80;99.90
42615;DHT22;28754;47.700;7.924;2023-07-31T10:23:05;20.00;99.90
42615;DHT22;28754;47.700;7.924;2023-07-31T10:25:53;19.60;99.90
42615;DHT22;28754;47.700;7.924;2023-07-31T10:28:44;19.10;99.90
42615;DHT22;28754;47.700;7.924;2023-07-31T10:31:34;19.60;99.90
42615;DHT22;28754;47.700;7.924;2023-07-31T10:34:21;20.00;99.90
42615;DHT22;28754;47.700;7.924;2023-07-31T10:40:18;19.70;99.90
42615;DHT22;28754;47.700;7.924;2023-07-31T10:43:09;20.40;99.90
42615;DHT22;28754;47.700;7.924;2023-07-31T10:46:14;20.90;99.90
42615;DHT22;28754;47.700;7.924;2023-07-31T10:49:02;19.70;99.90
42615;DHT22;28754;47.700;7.924;2023-07-31T10:51:49;19.70;99.90
42615;DHT22;28754;47.700;7.924;2023-07-31T10:54:35;19.60;99.90
42615;DHT22;28754;47.700;7.924;2023-07-31T10:57:22;19.90;99.90
42615;DHT22;28754;47.700;7.924;2023-07-31T11:00:26;20.90;99.90
42615;DHT22;28754;47.700;7.924;2023-07-31T11:03:19;21.60;99.90
42615;DHT22;28754;47.700;7.924;2023-07-31T11:06:09;22.30;99.90
42615;DHT22;28754;47.700;7.924;2023-07-31T11:08:56;22.10;99.90
42615;DHT22;28754;47.700;7.924;2023-07-31T11:11:44;21.10;99.90
42615;DHT22;28754;47.700;7.924;2023-07-31T11:14:32;21.00;99.90
42615;DHT22;28754;47.700;7.924;2023-07-31T11:17:18;21.80;99.90
42615;DHT22;28754;47.700;7.924;2023-07-31T11:20:06;21.30;99.90
42615;DHT22;28754;47.700;7.924;2023-07-31T11:22:57;20.80;99.90
42615;DHT22;28754;47.700;7.924;2023-07-31T11:25:45;20.50;99.90
42615;DHT22;28754;47.700;7.924;2023-07-31T11:28:33;21.00;99.90
42615;DHT22;28754;47.700;7.924;2023-07-31T11:31:21;22.20;99.90
42615;DHT22;28754;47.700;7.924;2023-07-31T11:34:08;22.40;99.90
42615;DHT22;28754;47.700;7.924;2023-07-31T11:36:55;22.40;99.90
42615;DHT22;28754;47.700;7.924;2023-07-31T11:39:42;23.00;99.90
42615;DHT22;28754;47.700;7.924;2023-07-31T11:42:29;22.40;99.90
42615;DHT22;28754;47.700;7.924;2023-07-31T11:45:15;22.00;99.90
42615;DHT22;28754;47.700;7.924;2023-07-31T11:48:03;22.60;99.90
42615;DHT22;28754;47.700;7.924;2023-07-31T11:50:51;22.70;99.90
42615;DHT22;28754;47.700;7.924;2023-07-31T11:53:44;22.10;99.90
42615;DHT22;28754;47.700;7.924;2023-07-31T11:56:36;22.10;99.90
42615;DHT22;28754;47.700;7.924;2023-07-31T11:59:23;22.00;99.90
42615;DHT22;28754;47.700;7.924;2023-07-31T12:02:10;23.00;99.90
42615;DHT22;28754;47.700;7.924;2023-07-31T12:04:57;22.40;99.90
42615;DHT22;28754;47.700;7.924;2023-07-31T12:07:48;22.30;99.90
42615;DHT22;28754;47.700;7.924;2023-07-31T12:10:36;22.10;99.90
42615;DHT22;28754;47.700;7.924;2023-07-31T12:13:25;21.50;99.90
42615;DHT22;28754;47.700;7.924;2023-07-31T12:16:12;21.60;99.90
42615;DHT22;28754;47.700;7.924;2023-07-31T12:18:59;22.50;99.90
42615;DHT22;28754;47.700;7.924;2023-07-31T12:21:46;23.30;99.90
42615;DHT22;28754;47.700;7.924;2023-07-31T12:24:34;23.70;99.90
42615;DHT22;28754;47.700;7.924;2023-07-31T12:27:20;23.40;99.90
42615;DHT22;28754;47.700;7.924;2023-07-31T12:30:31;23.30;99.90
42615;DHT22;28754;47.700;7.924;2023-07-31T12:33:19;24.00;99.90
42615;DHT22;28754;47.700;7.924;2023-07-31T12:36:11;23.40;99.90
42615;DHT22;28754;47.700;7.924;2023-07-31T12:39:01;23.10;99.90
42615;DHT22;28754;47.700;7.924;2023-07-31T12:41:50;22.70;99.90
42615;DHT22;28754;47.700;7.924;2023-07-31T12:44:37;22.90;99.90
42615;DHT22;28754;47.700;7.924;2023-07-31T12:47:24;23.80;99.90
42615;DHT22;28754;47.700;7.924;2023-07-31T12:50:10;23.70;99.90
42615;DHT22;28754;47.700;7.924;2023-07-31T12:52:57;22.80;99.90
42615;DHT22;28754;47.700;7.924;2023-07-31T12:55:44;22.90;99.90
42615;DHT22;28754;47.700;7.924;2023-07-31T12:58:31;23.30;99.90
42615;DHT22;28754;47.700;7.924;2023-07-31T13:01:17;23.20;99.90
42615;DHT22;28754;47.700;7.924;2023-07-31T13:04:04;22.20;99.90
42615;DHT22;28754;47.700;7.924;2023-07-31T13:06:51;22.00;99.90
42615;DHT22;28754;47.700;7.924;2023-07-31T13:09:37;22.00;99.90
42615;DHT22;28754;47.700;7.924;2023-07-31T13:12:24;22.50;99.90
42615;DHT22;28754;47.700;7.924;2023-07-31T13:15:12;23.50;99.90
42615;DHT22;28754;47.700;7.924;2023-07-31T13:17:59;23.60;99.90
42615;DHT22;28754;47.700;7.924;2023-07-31T13:20:45;23.20;99.90
42615;DHT22;28754;47.700;7.924;2023-07-31T13:23:32;23.20;99.90
42615;DHT22;28754;47.700;7.924;2023-07-31T13:26:19;23.40;99.90
42615;DHT22;28754;47.700;7.924;2023-07-31T13:29:05;23.40;99.90
42615;DHT22;28754;47.700;7.924;2023-07-31T13:31:52;23.30;99.90
42615;DHT22;28754;47.700;7.924;2023-07-31T13:34:39;23.40;99.90
42615;DHT22;28754;47.700;7.924;2023-07-31T13:37:26;23.30;99.90
42615;DHT22;28754;47.700;7.924;2023-07-31T13:40:12;23.30;99.90
42615;DHT22;28754;47.700;7.924;2023-07-31T13:42:59;23.50;99.90
42615;DHT22;28754;47.700;7.924;2023-07-31T13:45:46;24.10;99.90
42615;DHT22;28754;47.700;7.924;2023-07-31T13:48:36;24.20;99.90
42615;DHT22;28754;47.700;7.924;2023-07-31T13:51:23;24.60;99.90
42615;DHT22;28754;47.700;7.924;2023-07-31T13:54:09;24.80;99.90
42615;DHT22;28754;47.700;7.924;2023-07-31T13:56:57;24.90;99.90
42615;DHT22;28754;47.700;7.924;2023-07-31T13:59:44;24.60;99.90
42615;DHT22;28754;47.700;7.924;2023-07-31T14:02:31;24.40;99.90
42615;DHT22;28754;47.700;7.924;2023-07-31T14:05:17;23.90;99.90
42615;DHT22;28754;47.700;7.924;2023-07-31T14:08:04;24.20;99.90
42615;DHT22;28754;47.700;7.924;2023-07-31T14:10:51;24.00;99.90
42615;DHT22;28754;47.700;7.924;2023-07-31T14:13:37;24.00;99.90
42615;DHT22;28754;47.700;7.924;2023-07-31T14:16:24;23.70;99.90
42615;DHT22;28754;47.700;7.924;2023-07-31T14:19:11;23.70;99.90
42615;DHT22;28754;47.700;7.924;2023-07-31T14:22:00;24.40;99.90
42615;DHT22;28754;47.700;7.924;2023-07-31T14:24:47;24.10;99.90
42615;DHT22;28754;47.700;7.924;2023-07-31T14:27:34;24.10;99.90
42615;DHT22;28754;47.700;7.924;2023-07-31T14:30:20;24.10;99.90
42615;DHT22;28754;47.700;7.924;2023-07-31T14:33:07;23.80;99.90
42615;DHT22;28754;47.700;7.924;2023-07-31T14:35:54;23.60;99.90
42615;DHT22;28754;47.700;7.924;2023-07-31T14:38:40;23.70;99.90
42615;DHT22;28754;47.700;7.924;2023-07-31T14:41:27;24.40;99.90
42615;DHT22;28754;47.700;7.924;2023-07-31T14:44:14;24.50;99.90
42615;DHT22;28754;47.700;7.924;2023-07-31T14:47:01;24.60;99.90
42615;DHT22;28754;47.700;7.924;2023-07-31T14:49:47;24.90;99.90
42615;DHT22;28754;47.700;7.924;2023-07-31T14:52:34;24.90;99.90
42615;DHT22;28754;47.700;7.924;2023-07-31T14:55:21;24.90;99.90
42615;DHT22;28754;47.700;7.924;2023-07-31T14:58:08;24.50;99.90
42615;DHT22;28754;47.700;7.924;2023-07-31T15:00:57;24.50;99.90
42615;DHT22;28754;47.700;7.924;2023-07-31T15:03:43;24.20;99.90
42615;DHT22;28754;47.700;7.924;2023-07-31T15:06:30;24.40;99.90
42615;DHT22;28754;47.700;7.924;2023-07-31T15:09:17;24.40;99.90
42615;DHT22;28754;47.700;7.924;2023-07-31T15:12:03;24.20;99.90
42615;DHT22;28754;47.700;7.924;2023-07-31T15:14:50;23.80;99.90
42615;DHT22;28754;47.700;7.924;2023-07-31T15:17:38;23.90;99.90
42615;DHT22;28754;47.700;7.924;2023-07-31T15:20:24;24.00;99.90
42615;DHT22;28754;47.700;7.924;2023-07-31T15:23:11;23.40;99.90
42615;DHT22;28754;47.700;7.924;2023-07-31T15:25:58;23.40;99.90
42615;DHT22;28754;47.700;7.924;2023-07-31T15:28:50;23.40;99.90
42615;DHT22;28754;47.700;7.924;2023-07-31T15:31:43;23.20;99.90
42615;DHT22;28754;47.700;7.924;2023-07-31T15:34:29;23.10;99.90
42615;DHT22;28754;47.700;7.924;2023-07-31T15:37:17;23.40;99.90
42615;DHT22;28754;47.700;7.924;2023-07-31T15:40:04;23.30;99.90
42615;DHT22;28754;47.700;7.924;2023-07-31T15:42:53;23.40;99.90
42615;DHT22;28754;47.700;7.924;2023-07-31T15:45:40;23.10;99.90
42615;DHT22;28754;47.700;7.924;2023-07-31T15:48:27;23.30;99.90
42615;DHT22;28754;47.700;7.924;2023-07-31T15:51:14;23.00;99.90
42615;DHT22;28754;47.700;7.924;2023-07-31T15:54:01;22.90;99.90
42615;DHT22;28754;47.700;7.924;2023-07-31T15:56:48;22.80;99.90
42615;DHT22;28754;47.700;7.924;2023-07-31T15:59:34;22.60;99.90
42615;DHT22;28754;47.700;7.924;2023-07-31T16:02:21;22.70;99.90
42615;DHT22;28754;47.700;7.924;2023-07-31T16:05:08;22.50;99.90
42615;DHT22;28754;47.700;7.924;2023-07-31T16:08:36;22.20;99.90
42615;DHT22;28754;47.700;7.924;2023-07-31T16:12:01;22.20;99.90
42615;DHT22;28754;47.700;7.924;2023-07-31T16:15:08;22.20;99.90
42615;DHT22;28754;47.700;7.924;2023-07-31T16:17:55;21.80;99.90
42615;DHT22;28754;47.700;7.924;2023-07-31T16:20:41;21.80;99.90
42615;DHT22;28754;47.700;7.924;2023-07-31T16:23:31;21.70;99.90
42615;DHT22;28754;47.700;7.924;2023-07-31T16:26:17;21.50;99.90
42615;DHT22;28754;47.700;7.924;2023-07-31T16:29:04;21.40;99.90
42615;DHT22;28754;47.700;7.924;2023-07-31T16:31:51;21.40;99.90
42615;DHT22;28754;47.700;7.924;2023-07-31T16:34:38;21.60;99.90
42615;DHT22;28754;47.700;7.924;2023-07-31T16:37:25;21.80;99.90
42615;DHT22;28754;47.700;7.924;2023-07-31T16:40:14;21.60;99.90
42615;DHT22;28754;47.700;7.924;2023-07-31T16:43:01;21.60;99.90
42615;DHT22;28754;47.700;7.924;2023-07-31T16:45:49;21.80;99.90
42615;DHT22;28754;47.700;7.924;2023-07-31T16:48:36;21.60;99.90
42615;DHT22;28754;47.700;7.924;2023-07-31T16:51:23;21.50;99.90
42615;DHT22;28754;47.700;7.924;2023-07-31T16:54:10;21.40;99.90
42615;DHT22;28754;47.700;7.924;2023-07-31T16:56:57;21.20;99.90
42615;DHT22;28754;47.700;7.924;2023-07-31T16:59:44;21.10;99.90
42615;DHT22;28754;47.700;7.924;2023-07-31T17:02:30;21.10;99.90
42615;DHT22;28754;47.700;7.924;2023-07-31T17:05:17;20.90;99.90
42615;DHT22;28754;47.700;7.924;2023-07-31T17:08:04;20.90;99.90
42615;DHT22;28754;47.700;7.924;2023-07-31T17:10:51;20.90;99.90
42615;DHT22;28754;47.700;7.924;2023-07-31T17:13:38;21.00;99.90
42615;DHT22;28754;47.700;7.924;2023-07-31T17:16:24;20.80;99.90
42615;DHT22;28754;47.700;7.924;2023-07-31T17:19:15;20.80;99.90
42615;DHT22;28754;47.700;7.924;2023-07-31T17:22:01;20.80;99.90
42615;DHT22;28754;47.700;7.924;2023-07-31T17:24:51;20.70;99.90
42615;DHT22;28754;47.700;7.924;2023-07-31T17:27:40;20.80;99.90
42615;DHT22;28754;47.700;7.924;2023-07-31T17:30:29;20.80;99.90
42615;DHT22;28754;47.700;7.924;2023-07-31T17:33:16;20.60;99.90
42615;DHT22;28754;47.700;7.924;2023-07-31T17:36:05;20.90;99.90
42615;DHT22;28754;47.700;7.924;2023-07-31T17:38:52;20.90;99.90
42615;DHT22;28754;47.700;7.924;2023-07-31T17:41:38;20.70;99.90
42615;DHT22;28754;47.700;7.924;2023-07-31T17:44:37;20.80;99.90
42615;DHT22;28754;47.700;7.924;2023-07-31T20:01:43;19.60;99.90
42615;DHT22;28754;47.700;7.924;2023-07-31T22:10:13;19.20;99.90
42615;DHT22;28754;47.700;7.924;2023-07-31T22:12:59;19.20;99.90
42615;DHT22;28754;47.700;7.924;2023-07-31T22:15:46;19.20;99.90
42615;DHT22;28754;47.700;7.924;2023-07-31T22:18:34;19.20;99.90